SJS weather

Big Sandy Regional Airport
Prestonsburg, Kentucky, United States

Public forecast

Using degrees Fahrenheit for public forecast. Weather courtesy of forecast.io.

METAR (pilot weather report)

Retrieved 2019/04/22 03:35 UTC (16 minutes ago):

KSJS 220335Z AUTO 00000KT 10SM CLR 08/06 A3019 RMK AO2 T00830060

TAF (pilot weather forecast)

Forecast is more than 12 hours old.

Closest forecast is Julian Carroll Airport, 33.7 nm (62.4 km) WSW. Retrieved 2019/04/21 00:36 UTC (1 day ago):

TAF KJKL 212333Z 2200/2224 00000KT P6SM SKC